Time;durP1;ratioP1;P1;durP2;ratioP2;P2;SDS_P1;SDS_P2;PMS_P1;PMS_P2;Temp;Humidity;BMP_temperature;BMP_pressure;BME280_temperature;BME280_humidity;BME280_pressure;Samples;Min_cycle;Max_cycle;Signal;HPM_P1;HPM_P2
2023/09/06 00:02:10;;;;;;;6.38;3.03;;;18.20;99.90;;;;;;5009205;28;20033;-74
2023/09/06 00:04:35;;;;;;;6.03;2.95;;;18.20;99.90;;;;;;5011240;28;20052;-74
2023/09/06 00:07:03;;;;;;;5.20;2.95;;;18.10;99.90;;;;;;5004050;28;20045;-74
2023/09/06 00:09:28;;;;;;;5.93;2.95;;;18.00;99.90;;;;;;5012192;28;20022;-74
2023/09/06 00:11:54;;;;;;;7.25;4.18;;;18.10;99.90;;;;;;5010319;28;20488;-74
2023/09/06 00:14:20;;;;;;;5.32;3.15;;;18.10;99.90;;;;;;5010202;28;20037;-74
2023/09/06 00:16:46;;;;;;;5.22;3.13;;;18.20;99.90;;;;;;5010241;28;20476;-74
2023/09/06 00:19:14;;;;;;;8.10;3.10;;;18.20;99.90;;;;;;5009678;28;20523;-74
2023/09/06 00:21:42;;;;;;;5.82;3.38;;;18.20;99.90;;;;;;5008605;28;20018;-74
2023/09/06 00:24:12;;;;;;;7.07;3.20;;;18.20;99.90;;;;;;5009674;28;20030;-74
2023/09/06 00:26:38;;;;;;;4.80;3.10;;;18.10;99.90;;;;;;5011548;28;20022;-75
2023/09/06 00:29:06;;;;;;;4.45;2.65;;;18.10;99.90;;;;;;5012028;28;20472;-75
2023/09/06 00:31:32;;;;;;;6.38;2.92;;;18.10;99.90;;;;;;5012352;28;20065;-74
2023/09/06 00:33:57;;;;;;;6.43;2.65;;;18.10;99.90;;;;;;5010761;28;20069;-75
2023/09/06 00:36:23;;;;;;;6.32;3.00;;;18.00;99.90;;;;;;5012175;28;20049;-74
2023/09/06 00:38:49;;;;;;;4.65;2.85;;;18.00;99.90;;;;;;5012266;28;20029;-74
2023/09/06 00:41:14;;;;;;;5.70;3.13;;;17.90;99.90;;;;;;5010059;28;20038;-74
2023/09/06 00:43:40;;;;;;;5.00;2.83;;;18.00;99.90;;;;;;5012206;28;20030;-74
2023/09/06 00:46:07;;;;;;;5.07;2.60;;;17.90;99.90;;;;;;5011469;28;20026;-74
2023/09/06 00:48:36;;;;;;;6.60;3.03;;;17.90;99.90;;;;;;5011991;28;20109;-74
2023/09/06 00:51:04;;;;;;;7.93;3.38;;;17.90;99.90;;;;;;5010303;28;20061;-74
2023/09/06 00:53:31;;;;;;;4.55;2.80;;;18.10;99.90;;;;;;5014628;28;20029;-74
2023/09/06 00:55:59;;;;;;;6.63;3.13;;;18.10;99.90;;;;;;5012645;28;20033;-74
2023/09/06 00:58:27;;;;;;;5.75;3.22;;;18.10;99.90;;;;;;5014557;28;20033;-75
2023/09/06 01:00:52;;;;;;;5.78;3.03;;;18.10;99.90;;;;;;5012118;28;20483;-75
2023/09/06 01:03:18;;;;;;;4.25;2.40;;;18.10;99.90;;;;;;5013769;28;20029;-75
2023/09/06 01:05:47;;;;;;;5.25;2.80;;;18.00;99.90;;;;;;5007859;28;20076;-74
2023/09/06 01:08:20;;;;;;;4.63;2.45;;;18.00;99.90;;;;;;4998832;28;20614;-75
2023/09/06 01:10:46;;;;;;;7.27;3.60;;;17.90;99.90;;;;;;5011939;28;20129;-74
2023/09/06 01:13:12;;;;;;;5.68;3.13;;;18.00;99.90;;;;;;5013920;28;20873;-75
2023/09/06 01:15:43;;;;;;;7.22;3.05;;;17.90;99.90;;;;;;5014159;28;20044;-74
2023/09/06 01:18:09;;;;;;;6.32;3.10;;;17.90;99.90;;;;;;5012932;28;20041;-75
2023/09/06 01:20:42;;;;;;;4.85;2.80;;;17.70;99.90;;;;;;5010768;28;20030;-74
2023/09/06 01:23:33;;;;;;;6.07;3.30;;;17.80;99.90;;;;;;4996285;28;20038;-74
2023/09/06 01:25:59;;;;;;;5.80;3.03;;;17.60;99.90;;;;;;5011497;28;20045;-74
2023/09/06 01:28:27;;;;;;;6.00;2.97;;;17.70;99.90;;;;;;5012910;28;20026;-74
2023/09/06 01:30:56;;;;;;;4.75;2.83;;;17.70;99.90;;;;;;5011594;28;20038;-74
2023/09/06 01:33:22;;;;;;;6.90;3.05;;;17.60;99.90;;;;;;5011517;28;20038;-74
2023/09/06 01:35:51;;;;;;;4.15;2.60;;;17.60;99.90;;;;;;5014157;28;20099;-75
2023/09/06 01:38:17;;;;;;;7.05;3.42;;;17.60;99.90;;;;;;5014057;28;20030;-74
2023/09/06 01:40:43;;;;;;;4.47;2.70;;;17.60;99.90;;;;;;5012766;28;20037;-75
2023/09/06 01:43:09;;;;;;;6.07;3.03;;;17.60;99.90;;;;;;5014674;28;20034;-74
2023/09/06 01:45:43;;;;;;;4.85;2.75;;;17.50;99.90;;;;;;5013951;28;20034;-74
2023/09/06 01:48:08;;;;;;;4.72;2.85;;;17.60;99.90;;;;;;5013738;28;20042;-74
2023/09/06 01:50:34;;;;;;;6.20;3.10;;;17.60;99.90;;;;;;5013221;28;20045;-74
2023/09/06 01:53:00;;;;;;;5.72;2.90;;;17.50;99.90;;;;;;5011727;28;20435;-74
2023/09/06 01:55:26;;;;;;;5.22;3.03;;;17.50;99.90;;;;;;5013132;28;20033;-74
2023/09/06 01:57:51;;;;;;;7.55;3.47;;;17.50;99.90;;;;;;5008073;28;20400;-74
2023/09/06 02:00:32;;;;;;;6.63;3.08;;;17.50;99.90;;;;;;5009185;28;20092;-75
2023/09/06 02:02:59;;;;;;;4.97;3.00;;;17.50;99.90;;;;;;5010695;28;20554;-74
2023/09/06 02:05:25;;;;;;;4.40;2.80;;;17.50;99.90;;;;;;5007767;28;20129;-74
2023/09/06 02:07:51;;;;;;;5.50;3.10;;;17.40;99.90;;;;;;5011209;28;20116;-74
2023/09/06 02:10:17;;;;;;;6.10;2.88;;;17.40;99.90;;;;;;5012814;28;20046;-74
2023/09/06 02:12:43;;;;;;;4.53;2.95;;;17.50;99.90;;;;;;5012709;28;20033;-74
2023/09/06 02:15:13;;;;;;;5.95;3.70;;;17.40;99.90;;;;;;5011967;28;20104;-74
2023/09/06 02:17:42;;;;;;;5.22;3.08;;;17.40;99.90;;;;;;5011062;28;20161;-75
2023/09/06 02:20:19;;;;;;;6.28;3.28;;;17.50;99.90;;;;;;5011665;28;20028;-74
2023/09/06 02:22:46;;;;;;;5.10;3.28;;;17.50;99.90;;;;;;5012331;28;20026;-74
2023/09/06 02:25:14;;;;;;;5.35;2.95;;;17.50;99.90;;;;;;5009540;28;20455;-74
2023/09/06 02:27:40;;;;;;;7.22;3.30;;;17.40;99.90;;;;;;5010804;28;20030;-74
2023/09/06 02:30:06;;;;;;;4.97;3.03;;;17.40;99.90;;;;;;5013107;28;20025;-74
2023/09/06 02:32:35;;;;;;;6.22;3.35;;;17.40;99.90;;;;;;5011681;28;20484;-75
2023/09/06 02:35:02;;;;;;;5.63;2.97;;;17.40;99.90;;;;;;5010634;28;20061;-74
2023/09/06 02:37:27;;;;;;;5.32;2.72;;;17.40;99.90;;;;;;5007002;28;20034;-74
2023/09/06 02:39:53;;;;;;;5.60;3.17;;;17.40;99.90;;;;;;5011905;28;20084;-74
2023/09/06 02:42:20;;;;;;;8.48;3.53;;;17.40;99.90;;;;;;5012652;28;20026;-74
2023/09/06 02:44:46;;;;;;;5.93;3.28;;;17.40;99.90;;;;;;5013231;28;20072;-75
2023/09/06 02:47:15;;;;;;;6.30;3.55;;;17.30;99.90;;;;;;5012035;28;20033;-74
2023/09/06 02:49:43;;;;;;;7.10;3.55;;;17.30;99.90;;;;;;5013525;28;20460;-74
2023/09/06 02:52:28;;;;;;;6.32;3.05;;;17.20;99.90;;;;;;5009688;28;20034;-74
2023/09/06 02:54:57;;;;;;;8.50;3.92;;;17.20;99.90;;;;;;5009922;28;20029;-74
2023/09/06 02:57:24;;;;;;;5.93;3.38;;;17.20;99.90;;;;;;5000467;28;20035;-74
2023/09/06 02:59:51;;;;;;;6.88;3.30;;;17.30;99.90;;;;;;4997614;28;20034;-74
2023/09/06 03:02:18;;;;;;;6.07;3.05;;;17.30;99.90;;;;;;5011316;28;20026;-74
2023/09/06 03:04:44;;;;;;;8.45;3.70;;;17.30;99.90;;;;;;4999716;28;20377;-75
2023/09/06 03:07:09;;;;;;;4.63;2.88;;;17.30;99.90;;;;;;5006449;28;20033;-74
2023/09/06 03:09:36;;;;;;;5.20;2.78;;;17.10;99.90;;;;;;5004782;28;20442;-74
2023/09/06 03:12:14;;;;;;;6.05;3.55;;;17.10;99.90;;;;;;5006918;28;20065;-74
2023/09/06 03:14:44;;;;;;;5.85;3.75;;;17.00;99.90;;;;;;5005422;28;20037;-75
2023/09/06 03:17:11;;;;;;;5.55;3.55;;;17.00;99.90;;;;;;5001821;28;20499;-74
2023/09/06 03:19:48;;;;;;;6.63;3.25;;;16.90;99.90;;;;;;5002078;28;20041;-75
2023/09/06 03:22:15;;;;;;;7.13;3.03;;;17.00;99.90;;;;;;5002973;28;20080;-74
2023/09/06 03:24:41;;;;;;;6.45;3.63;;;17.00;99.90;;;;;;5007993;28;20395;-75
2023/09/06 03:27:15;;;;;;;6.80;3.38;;;16.90;99.90;;;;;;5009119;28;20595;-74
2023/09/06 03:29:42;;;;;;;5.53;3.75;;;16.90;99.90;;;;;;4999422;28;20042;-74
2023/09/06 03:32:08;;;;;;;6.43;3.75;;;16.90;99.90;;;;;;4994994;28;20099;-74
2023/09/06 03:34:35;;;;;;;5.75;3.22;;;16.80;99.90;;;;;;5007746;28;20034;-74
2023/09/06 03:37:04;;;;;;;10.30;3.75;;;17.00;99.90;;;;;;5007828;28;20026;-74
2023/09/06 03:39:37;;;;;;;6.38;4.07;;;17.00;99.90;;;;;;5006057;28;20030;-75
2023/09/06 03:42:08;;;;;;;4.95;3.15;;;16.90;99.90;;;;;;5006989;28;20018;-75
2023/09/06 03:44:35;;;;;;;6.45;3.22;;;16.90;99.90;;;;;;5002106;28;20034;-74
2023/09/06 03:47:04;;;;;;;6.40;3.67;;;17.00;99.90;;;;;;4989125;28;20034;-74
2023/09/06 03:49:29;;;;;;;5.85;3.58;;;17.00;99.90;;;;;;4999115;28;20053;-74
2023/09/06 03:51:55;;;;;;;5.70;3.28;;;17.00;99.90;;;;;;5006141;28;20038;-74
2023/09/06 03:54:21;;;;;;;5.75;2.95;;;17.00;99.90;;;;;;5005562;28;20472;-74
2023/09/06 03:56:46;;;;;;;7.18;3.63;;;17.00;99.90;;;;;;5002083;28;20041;-74
2023/09/06 03:59:12;;;;;;;5.53;3.35;;;17.00;99.90;;;;;;4993023;28;20104;-74
2023/09/06 04:01:38;;;;;;;6.03;3.20;;;17.00;99.90;;;;;;5004256;28;20037;-74
2023/09/06 04:04:04;;;;;;;6.28;3.38;;;17.00;99.90;;;;;;5003949;28;20058;-74
2023/09/06 04:06:30;;;;;;;5.68;3.25;;;17.10;99.90;;;;;;5000754;28;20038;-74
2023/09/06 04:08:56;;;;;;;6.82;3.33;;;17.10;99.90;;;;;;5001991;28;20426;-74
2023/09/06 04:11:22;;;;;;;7.88;3.15;;;17.10;99.90;;;;;;5003749;28;20045;-74
2023/09/06 04:13:51;;;;;;;4.85;3.03;;;17.20;99.90;;;;;;5001598;28;20736;-74
2023/09/06 04:16:16;;;;;;;6.32;2.92;;;17.30;99.90;;;;;;5001838;28;20407;-74
2023/09/06 04:18:42;;;;;;;5.93;3.25;;;17.40;99.90;;;;;;5003302;28;20044;-74
2023/09/06 04:21:08;;;;;;;4.75;2.90;;;17.30;99.90;;;;;;5002502;28;20058;-75
2023/09/06 04:23:39;;;;;;;8.82;3.58;;;17.10;99.90;;;;;;5001535;28;20168;-74
2023/09/06 04:26:05;;;;;;;6.25;3.05;;;17.10;99.90;;;;;;5003636;28;20041;-74
2023/09/06 04:28:30;;;;;;;5.22;3.08;;;17.10;99.90;;;;;;5006172;28;20403;-75
2023/09/06 04:30:57;;;;;;;7.05;3.30;;;17.10;99.90;;;;;;5005996;28;20038;-74
2023/09/06 04:33:24;;;;;;;6.60;3.83;;;17.10;99.90;;;;;;5007978;28;20026;-74
2023/09/06 04:35:50;;;;;;;8.25;3.80;;;17.10;99.90;;;;;;5007073;28;20033;-74
2023/09/06 04:38:18;;;;;;;7.93;3.63;;;17.10;99.90;;;;;;5006047;28;20480;-74
2023/09/06 04:40:46;;;;;;;7.18;3.60;;;17.10;99.90;;;;;;5008272;28;20018;-75
2023/09/06 04:43:13;;;;;;;9.82;4.28;;;17.20;99.90;;;;;;5006452;28;20357;-74
2023/09/06 04:45:39;;;;;;;6.32;3.85;;;17.30;99.90;;;;;;5007443;28;20679;-74
2023/09/06 04:48:10;;;;;;;5.55;3.58;;;17.30;99.90;;;;;;5006072;28;20141;-74
2023/09/06 04:50:39;;;;;;;6.82;3.95;;;17.30;99.90;;;;;;5005218;28;20606;-74
2023/09/06 04:53:07;;;;;;;5.88;3.70;;;17.40;99.90;;;;;;5005717;28;20511;-74
2023/09/06 04:55:35;;;;;;;5.70;3.97;;;17.40;99.90;;;;;;5006396;28;20033;-75
2023/09/06 04:58:11;;;;;;;5.95;3.17;;;17.40;99.90;;;;;;4995547;28;20126;-74
2023/09/06 05:00:39;;;;;;;5.80;3.00;;;17.20;99.90;;;;;;5006030;28;20034;-74
2023/09/06 05:03:10;;;;;;;7.05;3.95;;;17.10;99.90;;;;;;5007226;28;20136;-74
2023/09/06 05:05:37;;;;;;;9.27;4.45;;;17.10;99.90;;;;;;5006648;28;20050;-74
2023/09/06 05:08:03;;;;;;;8.82;3.53;;;17.20;99.90;;;;;;5005223;28;20049;-73
2023/09/06 05:10:29;;;;;;;5.72;3.33;;;17.20;99.90;;;;;;4988679;28;20096;-74
2023/09/06 05:12:54;;;;;;;5.60;3.42;;;17.10;99.90;;;;;;5006905;28;20506;-75
2023/09/06 05:15:20;;;;;;;6.95;3.42;;;17.10;99.90;;;;;;5006325;28;20033;-74
2023/09/06 05:17:46;;;;;;;6.45;3.85;;;17.20;99.90;;;;;;5006422;28;20029;-73
2023/09/06 05:20:38;;;;;;;5.55;4.03;;;17.10;99.90;;;;;;5005823;28;20468;-74
2023/09/06 05:23:07;;;;;;;5.60;3.63;;;17.20;99.90;;;;;;4999061;28;20484;-74
2023/09/06 05:25:33;;;;;;;7.00;3.45;;;17.30;99.90;;;;;;5004352;28;20026;-74
2023/09/06 05:28:10;;;;;;;7.65;4.38;;;17.40;99.90;;;;;;5006294;28;20034;-73
2023/09/06 05:30:45;;;;;;;7.10;3.40;;;17.40;99.90;;;;;;5009383;28;20060;-75
2023/09/06 05:33:13;;;;;;;8.13;4.05;;;17.40;99.90;;;;;;5008468;28;20033;-75
2023/09/06 05:35:41;;;;;;;8.38;3.10;;;17.20;99.90;;;;;;5003972;28;20535;-76
2023/09/06 05:38:08;;;;;;;6.38;3.63;;;17.20;99.90;;;;;;4995794;28;20037;-74
2023/09/06 05:40:34;;;;;;;7.95;4.13;;;17.10;99.90;;;;;;5006292;28;20022;-75
2023/09/06 05:43:00;;;;;;;8.25;3.92;;;17.10;99.90;;;;;;5004408;28;20037;-74
2023/09/06 05:45:26;;;;;;;7.78;3.72;;;17.10;99.90;;;;;;4999939;28;20049;-74
2023/09/06 05:47:53;;;;;;;8.85;3.67;;;17.10;99.90;;;;;;5006687;28;20030;-74
2023/09/06 05:50:19;;;;;;;8.15;3.45;;;17.10;99.90;;;;;;5006988;28;20076;-74
2023/09/06 05:52:46;;;;;;;6.45;4.25;;;17.10;99.90;;;;;;5006725;28;20049;-75
2023/09/06 05:55:12;;;;;;;6.53;4.05;;;17.20;99.90;;;;;;4997695;28;20105;-74
2023/09/06 05:57:38;;;;;;;6.43;3.83;;;17.10;99.90;;;;;;4997761;28;20133;-74
2023/09/06 06:00:12;;;;;;;7.65;3.35;;;17.10;99.90;;;;;;5004795;28;20038;-74
2023/09/06 06:02:41;;;;;;;8.93;4.05;;;17.20;99.90;;;;;;5006099;28;20033;-74
2023/09/06 06:05:07;;;;;;;5.93;3.40;;;17.20;99.90;;;;;;5005257;28;20482;-74
2023/09/06 06:07:33;;;;;;;5.57;3.33;;;17.30;99.90;;;;;;5004643;28;20527;-74
2023/09/06 06:09:59;;;;;;;7.57;4.05;;;17.30;99.90;;;;;;5006106;28;20113;-74
2023/09/06 06:12:24;;;;;;;9.82;3.95;;;17.40;99.90;;;;;;5005597;28;20034;-73
2023/09/06 06:14:53;;;;;;;9.02;4.03;;;17.40;99.90;;;;;;4992757;28;20030;-74
2023/09/06 06:17:19;;;;;;;7.07;3.83;;;17.40;99.90;;;;;;5005116;28;20092;-74
2023/09/06 06:19:47;;;;;;;8.13;4.25;;;17.40;99.90;;;;;;5004856;28;20452;-74
2023/09/06 06:22:12;;;;;;;9.77;4.13;;;17.50;99.90;;;;;;5005009;28;20043;-75
2023/09/06 06:24:42;;;;;;;9.20;3.92;;;17.50;99.90;;;;;;5005326;28;20442;-74
2023/09/06 06:27:07;;;;;;;7.97;4.00;;;17.40;99.90;;;;;;5004897;28;20117;-74
2023/09/06 06:29:33;;;;;;;6.88;3.70;;;17.30;99.90;;;;;;5004793;28;20113;-74
2023/09/06 06:31:59;;;;;;;6.80;4.20;;;17.20;99.90;;;;;;5005905;28;20038;-74
2023/09/06 06:34:25;;;;;;;7.30;4.10;;;17.20;99.90;;;;;;5008004;28;20032;-74
2023/09/06 06:36:50;;;;;;;6.40;4.03;;;17.30;99.90;;;;;;5007751;28;20029;-74
2023/09/06 06:39:17;;;;;;;9.70;4.63;;;17.40;99.90;;;;;;5004632;28;20022;-75
2023/09/06 06:41:44;;;;;;;6.85;3.58;;;17.40;99.90;;;;;;5005816;28;20033;-74
2023/09/06 06:44:10;;;;;;;8.23;4.20;;;17.40;99.90;;;;;;5005543;28;20021;-76
2023/09/06 06:46:38;;;;;;;5.65;3.78;;;17.40;99.90;;;;;;5005471;28;20030;-75
2023/09/06 06:49:07;;;;;;;6.75;3.90;;;17.50;99.90;;;;;;5005450;28;20034;-75
2023/09/06 06:51:38;;;;;;;6.10;3.92;;;17.90;99.90;;;;;;5004179;28;20040;-75
2023/09/06 06:54:14;;;;;;;9.68;4.22;;;17.90;99.90;;;;;;4997016;28;20041;-75
2023/09/06 06:56:40;;;;;;;5.57;3.70;;;18.30;99.90;;;;;;5004038;28;20034;-75
2023/09/06 06:59:09;;;;;;;6.90;3.65;;;19.40;99.90;;;;;;5004599;28;20361;-75
2023/09/06 07:01:35;;;;;;;6.05;3.35;;;21.40;99.90;;;;;;5005323;28;20022;-76
2023/09/06 07:04:04;;;;;;;8.10;4.25;;;23.40;99.90;;;;;;4991405;28;20137;-76
2023/09/06 07:06:30;;;;;;;7.75;3.75;;;25.20;97.50;;;;;;5004685;28;20114;-77
2023/09/06 07:08:57;;;;;;;6.18;3.75;;;26.30;96.00;;;;;;5006460;28;20029;-75
2023/09/06 07:11:24;;;;;;;6.55;3.20;;;26.90;95.00;;;;;;5006059;28;20045;-78
2023/09/06 07:13:51;;;;;;;4.53;2.75;;;26.80;94.60;;;;;;5005218;28;20033;-76
2023/09/06 07:16:18;;;;;;;7.45;3.40;;;26.60;94.70;;;;;;5004188;28;20034;-76
2023/09/06 07:18:45;;;;;;;9.70;3.28;;;26.60;94.70;;;;;;5005881;28;20026;-79
2023/09/06 07:21:11;;;;;;;9.43;3.85;;;25.50;95.10;;;;;;5007069;28;20443;-78
2023/09/06 07:23:37;;;;;;;11.68;3.80;;;22.90;98.40;;;;;;5005983;28;20029;-76
2023/09/06 07:26:04;;;;;;;7.10;3.70;;;20.90;99.90;;;;;;5010211;28;20056;-77
2023/09/06 07:28:40;;;;;;;5.65;3.60;;;20.00;99.90;;;;;;5006293;28;20060;-77
2023/09/06 07:31:07;;;;;;;8.18;3.75;;;19.50;99.90;;;;;;4993857;28;20044;-76
2023/09/06 07:33:33;;;;;;;8.13;3.95;;;19.10;99.90;;;;;;5001377;28;20025;-76
2023/09/06 07:35:58;;;;;;;14.80;3.70;;;18.90;99.90;;;;;;5003167;28;20036;-76
2023/09/06 07:38:24;;;;;;;11.23;3.80;;;18.90;99.90;;;;;;5006562;28;20025;-77
2023/09/06 07:41:00;;;;;;;5.97;3.20;;;19.00;99.90;;;;;;5008532;28;20025;-77
2023/09/06 07:43:28;;;;;;;6.38;4.18;;;19.00;99.90;;;;;;5007246;28;20026;-77
2023/09/06 07:45:58;;;;;;;7.10;4.25;;;19.00;99.90;;;;;;5007572;28;20091;-77
2023/09/06 07:48:31;;;;;;;6.75;4.50;;;18.90;99.90;;;;;;4997739;28;20034;-77
2023/09/06 07:50:59;;;;;;;7.65;3.80;;;19.00;99.90;;;;;;5006517;28;20038;-77
2023/09/06 07:53:26;;;;;;;7.63;4.05;;;19.10;99.90;;;;;;5006455;28;20025;-77
2023/09/06 07:55:52;;;;;;;8.25;4.20;;;19.20;99.90;;;;;;5007301;28;20029;-77
2023/09/06 07:58:18;;;;;;;11.15;4.45;;;19.30;99.90;;;;;;5008503;28;20500;-76
2023/09/06 08:00:44;;;;;;;11.70;3.97;;;19.50;99.90;;;;;;5007600;28;20115;-77
2023/09/06 08:03:11;;;;;;;6.70;3.83;;;19.30;99.90;;;;;;5011825;28;20060;-75
2023/09/06 08:05:37;;;;;;;5.15;3.33;;;19.50;99.90;;;;;;5009440;28;20108;-76
2023/09/06 08:08:06;;;;;;;6.82;4.07;;;19.50;99.90;;;;;;5012436;28;20100;-78
2023/09/06 08:10:33;;;;;;;8.95;3.67;;;19.70;99.90;;;;;;5012161;28;20113;-77
2023/09/06 08:12:59;;;;;;;10.02;3.58;;;19.80;99.90;;;;;;5011292;28;20401;-77
2023/09/06 08:15:24;;;;;;;12.90;4.22;;;19.80;99.90;;;;;;5012622;28;20034;-77
2023/09/06 08:17:51;;;;;;;7.70;3.55;;;19.90;99.90;;;;;;5012497;28;20045;-76
2023/09/06 08:20:17;;;;;;;6.55;3.72;;;19.90;99.90;;;;;;5013309;28;20034;-77
2023/09/06 08:22:45;;;;;;;6.68;3.25;;;20.10;99.90;;;;;;5010699;28;20553;-76
2023/09/06 08:25:12;;;;;;;5.95;3.70;;;20.10;99.90;;;;;;5001943;28;20574;-77
2023/09/06 08:27:38;;;;;;;9.70;3.55;;;20.00;99.90;;;;;;5005610;28;20033;-77
2023/09/06 08:30:05;;;;;;;6.65;3.72;;;20.00;99.90;;;;;;5014098;28;20030;-78
2023/09/06 08:32:31;;;;;;;6.50;3.50;;;20.00;99.90;;;;;;5014364;28;20034;-77
2023/09/06 08:34:58;;;;;;;7.70;3.40;;;20.20;99.90;;;;;;5012272;28;20026;-78
2023/09/06 08:37:24;;;;;;;7.82;3.33;;;20.30;99.90;;;;;;5012174;28;20044;-78
2023/09/06 08:39:50;;;;;;;4.88;3.10;;;20.40;99.90;;;;;;5012539;28;20372;-77
2023/09/06 08:42:20;;;;;;;5.22;3.38;;;20.40;99.90;;;;;;5008913;28;20034;-77
2023/09/06 08:44:48;;;;;;;5.38;3.47;;;20.50;99.90;;;;;;5012936;28;20030;-77
2023/09/06 08:47:18;;;;;;;5.68;3.45;;;20.60;99.90;;;;;;5010474;28;20480;-77
2023/09/06 08:49:47;;;;;;;5.63;3.28;;;20.80;99.90;;;;;;5010447;28;20104;-77
2023/09/06 08:52:15;;;;;;;6.97;3.35;;;20.80;99.90;;;;;;5009479;28;20108;-77
2023/09/06 08:54:53;;;;;;;6.50;3.50;;;21.10;99.90;;;;;;5008963;28;20030;-77
2023/09/06 08:57:20;;;;;;;7.95;4.15;;;24.20;99.90;;;;;;5011190;28;20038;-77
2023/09/06 08:59:47;;;;;;;6.50;3.22;;;26.30;98.60;;;;;;5010027;28;20033;-76
2023/09/06 09:02:14;;;;;;;6.65;3.75;;;27.60;96.70;;;;;;5011237;28;20033;-77
2023/09/06 09:04:42;;;;;;;6.22;3.53;;;28.30;95.30;;;;;;5010642;28;20053;-78
2023/09/06 09:07:13;;;;;;;7.82;3.50;;;27.90;95.60;;;;;;5012896;28;20041;-78
2023/09/06 09:10:14;;;;;;;7.45;4.00;;;28.50;95.00;;;;;;5011267;28;20083;-77
2023/09/06 09:12:39;;;;;;;5.03;3.17;;;28.80;94.60;;;;;;4920193;29;20040;-75
2023/09/06 09:15:07;;;;;;;7.00;3.67;;;29.50;94.40;;;;;;4987925;28;20148;-77
2023/09/06 09:17:38;;;;;;;5.50;3.25;;;28.60;94.70;;;;;;5014042;28;20485;-76
2023/09/06 09:20:05;;;;;;;5.97;3.55;;;28.40;94.50;;;;;;5009810;28;20129;-77
2023/09/06 09:22:37;;;;;;;7.07;3.50;;;28.90;95.10;;;;;;5007770;28;20026;-78
2023/09/06 09:25:14;;;;;;;5.90;3.38;;;29.40;94.60;;;;;;5008653;28;20141;-78
2023/09/06 09:27:56;;;;;;;7.63;3.85;;;29.30;94.20;;;;;;5003121;28;20121;-78
2023/09/06 09:30:22;;;;;;;8.95;3.67;;;29.60;93.90;;;;;;5008559;28;20483;-77
2023/09/06 09:32:48;;;;;;;9.27;3.80;;;29.10;94.40;;;;;;5010278;28;20468;-78
2023/09/06 09:35:14;;;;;;;5.78;3.65;;;28.40;94.00;;;;;;5008958;28;20021;-77
2023/09/06 09:37:42;;;;;;;6.20;3.53;;;27.50;93.80;;;;;;4993975;28;20092;-77
2023/09/06 09:40:18;;;;;;;5.65;3.42;;;26.90;94.70;;;;;;5008597;28;20026;-77
2023/09/06 09:42:57;;;;;;;12.60;3.85;;;26.10;95.50;;;;;;5009402;28;20033;-77
2023/09/06 09:45:30;;;;;;;5.65;3.33;;;25.50;96.60;;;;;;4999038;28;20034;-77
2023/09/06 09:47:59;;;;;;;8.40;3.38;;;24.50;96.90;;;;;;5008721;28;20562;-77
2023/09/06 09:50:26;;;;;;;6.65;3.28;;;23.80;97.70;;;;;;5008718;28;20030;-77
2023/09/06 09:52:52;;;;;;;8.68;3.92;;;23.70;98.00;;;;;;5005980;28;20065;-77
2023/09/06 09:55:27;;;;;;;5.15;3.65;;;24.00;98.50;;;;;;4990234;28;20072;-77
2023/09/06 09:57:54;;;;;;;16.13;4.18;;;24.10;98.20;;;;;;5006045;28;20469;-77
2023/09/06 10:00:27;;;;;;;8.60;3.78;;;24.10;98.10;;;;;;5009444;28;20425;-76
2023/09/06 10:02:58;;;;;;;9.82;3.42;;;24.00;98.10;;;;;;5009016;28;20044;-77
2023/09/06 10:05:29;;;;;;;6.30;3.67;;;23.90;98.60;;;;;;5008494;28;20128;-76
2023/09/06 10:07:56;;;;;;;6.50;4.10;;;24.00;98.50;;;;;;5005328;28;20034;-76
2023/09/06 10:10:26;;;;;;;5.38;3.20;;;24.20;98.60;;;;;;5009160;28;20076;-77
2023/09/06 10:12:53;;;;;;;5.97;3.35;;;24.20;97.90;;;;;;5005674;28;20038;-76
2023/09/06 10:15:20;;;;;;;6.18;3.30;;;24.10;97.60;;;;;;5003358;28;20033;-77
2023/09/06 10:17:51;;;;;;;5.55;3.72;;;23.90;97.50;;;;;;5002898;28;20030;-77
2023/09/06 10:20:22;;;;;;;7.30;3.50;;;24.30;98.50;;;;;;5002282;28;20084;-76
2023/09/06 10:22:52;;;;;;;6.93;3.65;;;24.10;97.60;;;;;;5007829;28;20037;-76
2023/09/06 10:25:18;;;;;;;5.82;3.47;;;24.30;98.50;;;;;;5006297;28;20021;-77
2023/09/06 10:27:49;;;;;;;6.90;3.28;;;24.40;98.00;;;;;;5007716;28;20030;-78
2023/09/06 10:30:17;;;;;;;6.60;3.53;;;24.60;98.00;;;;;;5009037;28;20037;-76
2023/09/06 10:32:45;;;;;;;7.68;4.03;;;24.70;97.50;;;;;;4991817;28;20048;-77
2023/09/06 10:35:25;;;;;;;5.47;3.80;;;24.90;97.90;;;;;;5009458;28;20033;-76
2023/09/06 10:38:06;;;;;;;6.43;3.72;;;24.80;97.50;;;;;;4990029;28;20102;-76
2023/09/06 10:40:47;;;;;;;6.38;3.72;;;25.10;98.30;;;;;;4994403;28;20109;-77
2023/09/06 10:43:13;;;;;;;7.72;3.75;;;25.20;97.30;;;;;;5008403;28;20503;-75
2023/09/06 10:45:40;;;;;;;6.07;3.53;;;25.00;97.80;;;;;;5008502;28;20041;-77
2023/09/06 10:48:10;;;;;;;6.00;3.97;;;25.30;97.70;;;;;;5008591;28;20033;-76
2023/09/06 10:50:36;;;;;;;8.90;3.72;;;25.70;97.40;;;;;;5007569;28;20052;-77
2023/09/06 10:53:03;;;;;;;7.30;3.90;;;25.90;96.90;;;;;;5007451;28;20030;-76
2023/09/06 10:55:42;;;;;;;9.40;3.63;;;25.80;96.70;;;;;;5007669;28;20131;-77
2023/09/06 10:58:10;;;;;;;12.48;3.85;;;26.00;96.80;;;;;;5008197;28;20030;-76
2023/09/06 11:00:37;;;;;;;7.85;3.60;;;25.90;96.90;;;;;;5007696;28;20658;-76
2023/09/06 11:03:08;;;;;;;6.82;4.55;;;25.90;96.50;;;;;;5009212;28;20065;-77
2023/09/06 11:05:51;;;;;;;5.97;3.17;;;26.10;96.70;;;;;;5006539;28;20080;-76
2023/09/06 11:08:29;;;;;;;7.97;4.03;;;26.00;96.40;;;;;;5008534;28;20096;-75
2023/09/06 11:11:07;;;;;;;9.27;4.00;;;26.00;96.80;;;;;;5008199;28;20037;-75
2023/09/06 11:13:34;;;;;;;5.78;3.50;;;25.80;96.60;;;;;;5009146;28;20115;-74
2023/09/06 11:16:01;;;;;;;6.07;3.60;;;25.90;96.80;;;;;;5006312;28;20065;-75
2023/09/06 11:18:28;;;;;;;6.15;3.45;;;26.00;96.30;;;;;;5007418;28;20072;-75
2023/09/06 11:20:54;;;;;;;11.00;3.35;;;26.30;96.60;;;;;;5005711;28;20041;-75
2023/09/06 11:23:21;;;;;;;5.32;3.58;;;26.60;95.80;;;;;;5007211;28;20022;-74
2023/09/06 11:25:57;;;;;;;5.93;3.83;;;26.40;95.90;;;;;;5006606;28;20030;-75
2023/09/06 11:28:23;;;;;;;6.43;3.67;;;26.60;97.40;;;;;;5004566;28;20030;-75
2023/09/06 11:30:49;;;;;;;6.65;3.83;;;26.70;96.30;;;;;;5003033;28;20065;-74
2023/09/06 11:33:16;;;;;;;4.70;2.90;;;26.70;97.10;;;;;;5003702;28;20200;-75
2023/09/06 11:35:52;;;;;;;5.35;2.83;;;26.60;96.40;;;;;;5004419;28;20018;-75
2023/09/06 11:38:24;;;;;;;6.00;3.28;;;26.80;97.30;;;;;;4994989;28;20030;-75
2023/09/06 11:40:51;;;;;;;7.45;3.67;;;26.70;96.30;;;;;;5002687;28;20030;-75
2023/09/06 11:43:22;;;;;;;6.25;2.97;;;26.70;96.60;;;;;;5004264;28;20034;-74
2023/09/06 11:45:51;;;;;;;6.50;3.75;;;26.90;96.70;;;;;;5003800;28;20087;-75
2023/09/06 11:48:24;;;;;;;5.22;3.13;;;27.00;96.30;;;;;;5004085;28;20056;-75
2023/09/06 11:50:55;;;;;;;4.93;3.08;;;27.00;96.50;;;;;;4997529;28;20025;-75
2023/09/06 11:53:21;;;;;;;8.65;3.35;;;27.10;96.70;;;;;;4990588;28;20052;-74
2023/09/06 11:55:49;;;;;;;4.97;3.17;;;27.10;96.20;;;;;;5003732;28;20508;-74
2023/09/06 11:58:18;;;;;;;5.63;3.03;;;27.20;96.00;;;;;;4998541;28;20636;-75
2023/09/06 12:00:50;;;;;;;4.15;3.05;;;27.20;96.60;;;;;;5002635;28;20095;-74
2023/09/06 12:03:16;;;;;;;6.32;3.25;;;27.30;96.30;;;;;;5003182;28;20026;-74
2023/09/06 12:05:44;;;;;;;5.25;3.35;;;27.10;96.10;;;;;;5003715;28;20557;-75
2023/09/06 12:08:15;;;;;;;7.35;3.35;;;27.20;95.60;;;;;;5003227;28;20109;-75
2023/09/06 12:10:49;;;;;;;6.60;3.42;;;27.30;95.60;;;;;;5002343;28;20026;-74
2023/09/06 12:13:16;;;;;;;6.20;3.40;;;27.30;95.60;;;;;;5004817;28;20018;-74
2023/09/06 12:15:43;;;;;;;8.00;3.63;;;27.40;95.60;;;;;;5002004;28;20041;-74
2023/09/06 12:18:09;;;;;;;8.50;3.28;;;27.60;95.80;;;;;;5003101;28;20061;-74
2023/09/06 12:20:34;;;;;;;5.07;3.08;;;27.60;95.50;;;;;;5001707;28;20459;-75
2023/09/06 12:23:00;;;;;;;5.72;3.33;;;27.60;95.00;;;;;;5002937;28;20037;-75
2023/09/06 12:25:26;;;;;;;4.78;3.17;;;27.60;95.80;;;;;;5003609;28;20091;-74
2023/09/06 12:27:52;;;;;;;6.35;3.13;;;27.50;95.20;;;;;;5001715;28;20626;-75
2023/09/06 12:30:21;;;;;;;4.45;3.22;;;27.60;96.20;;;;;;5002502;28;20060;-74
2023/09/06 12:32:47;;;;;;;5.22;2.90;;;27.70;95.20;;;;;;5002939;28;20037;-75
2023/09/06 12:35:13;;;;;;;5.15;2.95;;;27.80;94.90;;;;;;5003318;28;20826;-76
2023/09/06 12:37:40;;;;;;;8.77;3.17;;;27.90;94.70;;;;;;5000473;28;20534;-75
2023/09/06 12:40:10;;;;;;;6.68;3.08;;;28.00;95.00;;;;;;5002472;28;20065;-75
2023/09/06 12:42:43;;;;;;;4.50;2.95;;;28.00;94.80;;;;;;5003716;28;20109;-75
2023/09/06 12:45:16;;;;;;;5.28;2.80;;;28.00;94.40;;;;;;5005261;28;20240;-76
2023/09/06 12:47:42;;;;;;;4.25;2.47;;;28.20;94.60;;;;;;5008585;28;20567;-75
2023/09/06 12:50:08;;;;;;;6.40;2.60;;;28.20;94.10;;;;;;5009288;28;20040;-75
2023/09/06 12:52:34;;;;;;;7.10;3.35;;;28.20;93.80;;;;;;5009174;28;20053;-76